createdAt,value
2022-11-05T00:01:14.940Z,100836.22
2022-11-05T00:04:04.340Z,100828.22
2022-11-05T00:06:50.412Z,100831.25
2022-11-05T00:09:33.987Z,100831.59
2022-11-05T00:12:24.012Z,100822.84
2022-11-05T00:15:11.314Z,100820.94
2022-11-05T00:17:39.968Z,100813.81
2022-11-05T00:20:15.354Z,100812.13
2022-11-05T00:23:00.729Z,100806.78
2022-11-05T00:25:31.351Z,100806.22
2022-11-05T00:28:04.559Z,100799.28
2022-11-05T00:30:33.201Z,100796.94
2022-11-05T00:33:05.710Z,100792.72
2022-11-05T00:35:38.435Z,100785.88
2022-11-05T00:38:07.167Z,100792.00
2022-11-05T00:40:36.022Z,100778.81
2022-11-05T00:43:28.078Z,100783.25
2022-11-05T00:45:57.251Z,100785.75
2022-11-05T00:48:43.486Z,100777.88
2022-11-05T00:51:20.428Z,100771.50
2022-11-05T00:53:48.905Z,100767.25
2022-11-05T00:56:26.352Z,100771.06
2022-11-05T00:58:55.025Z,100759.81
2022-11-05T01:01:24.558Z,100772.56
2022-11-05T01:03:54.882Z,100778.66
2022-11-05T01:06:26.047Z,100770.38
2022-11-05T01:08:54.657Z,100771.53
2022-11-05T01:11:35.002Z,100773.44
2022-11-05T01:14:05.806Z,100763.75
2022-11-05T01:16:36.107Z,100765.63
2022-11-05T01:19:08.637Z,100765.28
2022-11-05T01:21:39.378Z,100755.00
2022-11-05T01:24:10.654Z,100760.34
2022-11-05T01:26:40.476Z,100758.56
2022-11-05T01:29:09.914Z,100767.22
2022-11-05T01:31:39.740Z,100766.47
2022-11-05T01:34:09.166Z,100758.34
2022-11-05T01:36:43.211Z,100757.38
2022-11-05T01:39:16.038Z,100748.53
2022-11-05T01:41:47.981Z,100748.13
2022-11-05T01:44:55.748Z,100741.03
2022-11-05T01:47:34.633Z,100734.19
2022-11-05T01:50:08.859Z,100736.22
2022-11-05T01:52:39.690Z,100726.28
2022-11-05T01:55:11.256Z,100726.50
2022-11-05T01:57:45.156Z,100733.34
2022-11-05T02:00:22.776Z,100727.09
2022-11-05T02:02:52.926Z,100727.75
2022-11-05T02:05:23.180Z,100727.41
2022-11-05T02:07:54.606Z,100718.22
2022-11-05T02:10:26.033Z,100721.78
2022-11-05T02:13:01.477Z,100708.72
2022-11-05T02:15:44.196Z,100706.78
2022-11-05T02:18:26.657Z,100703.81
2022-11-05T02:21:08.175Z,100703.19
2022-11-05T02:24:05.282Z,100700.47
2022-11-05T02:27:08.546Z,100703.44
2022-11-05T02:30:14.978Z,100692.25
2022-11-05T02:33:10.483Z,100685.53
2022-11-05T02:35:55.301Z,100679.28
2022-11-05T02:38:38.199Z,100682.53
2022-11-05T02:41:15.505Z,100680.25
2022-11-05T02:43:56.905Z,100673.38
2022-11-05T02:46:42.464Z,100656.84
2022-11-05T02:49:27.902Z,100646.50
2022-11-05T02:52:02.978Z,100642.19
2022-11-05T02:54:38.156Z,100633.66
2022-11-05T02:57:08.059Z,100625.03
2022-11-05T02:59:38.770Z,100620.59
2022-11-05T03:02:12.499Z,100610.78
2022-11-05T03:04:41.408Z,100599.41
2022-11-05T03:07:39.972Z,100590.44
2022-11-05T03:10:34.620Z,100582.31
2022-11-05T03:13:12.990Z,100575.09
2022-11-05T03:15:52.675Z,100574.78
2022-11-05T03:18:27.999Z,100571.16
2022-11-05T03:21:08.766Z,100556.94
2022-11-05T03:23:49.813Z,100548.19
2022-11-05T03:26:25.186Z,100545.06
2022-11-05T03:28:58.113Z,100532.44
2022-11-05T03:31:28.672Z,100523.84
2022-11-05T03:34:00.482Z,100516.63
2022-11-05T03:36:33.832Z,100505.38
2022-11-05T03:39:09.811Z,100489.16
2022-11-05T03:41:49.931Z,100484.13
2022-11-05T03:44:27.041Z,100466.03
2022-11-05T03:47:04.072Z,100467.00
2022-11-05T03:49:37.199Z,100455.22
2022-11-05T03:52:13.071Z,100464.09
2022-11-05T03:54:45.101Z,100456.44
2022-11-05T03:57:19.883Z,100449.38
2022-11-05T03:59:51.437Z,100447.94
2022-11-05T04:02:24.217Z,100451.88
2022-11-05T04:04:54.850Z,100452.94
2022-11-05T04:07:41.424Z,100453.06
2022-11-05T04:10:29.348Z,100455.78
2022-11-05T04:13:15.541Z,100441.06
2022-11-05T04:15:57.837Z,100438.50
2022-11-05T04:18:26.765Z,100427.25
2022-11-05T04:21:13.855Z,100423.78
2022-11-05T04:24:00.086Z,100417.78
2022-11-05T04:26:36.091Z,100411.56
2022-11-05T04:29:23.292Z,100399.25
2022-11-05T04:31:52.689Z,100375.19
2022-11-05T04:34:22.298Z,100365.81
2022-11-05T04:36:51.198Z,100361.03
2022-11-05T04:39:21.439Z,100361.41
2022-11-05T04:41:51.750Z,100359.41
2022-11-05T04:44:22.266Z,100342.25
2022-11-05T04:46:52.083Z,100336.97
2022-11-05T04:49:20.734Z,100334.22
2022-11-05T04:51:49.140Z,100334.94
2022-11-05T04:54:17.984Z,100325.00
2022-11-05T04:56:54.594Z,100327.97
2022-11-05T04:59:26.100Z,100321.88
2022-11-05T05:01:55.740Z,100300.16
2022-11-05T05:04:24.124Z,100308.81
2022-11-05T05:06:53.802Z,100306.97
2022-11-05T05:09:22.539Z,100295.25
2022-11-05T05:11:51.362Z,100298.84
2022-11-05T05:14:23.651Z,100289.88
2022-11-05T05:16:52.074Z,100285.69
2022-11-05T05:19:21.265Z,100279.13
2022-11-05T05:21:48.749Z,100271.31
2022-11-05T05:24:20.403Z,100273.13
2022-11-05T05:26:51.007Z,100273.69
2022-11-05T05:29:19.995Z,100254.63
2022-11-05T05:31:52.211Z,100256.56
2022-11-05T05:34:21.194Z,100239.50
2022-11-05T05:36:49.640Z,100227.72
2022-11-05T05:39:18.211Z,100227.97
2022-11-05T05:41:46.932Z,100221.13
2022-11-05T05:44:15.684Z,100227.53
2022-11-05T05:46:45.454Z,100213.63
2022-11-05T05:49:16.260Z,100216.94
2022-11-05T05:51:44.741Z,100217.91
2022-11-05T05:54:14.641Z,100199.28
2022-11-05T05:56:47.251Z,100210.88
2022-11-05T05:59:16.272Z,100196.81
2022-11-05T06:01:44.803Z,100199.28
2022-11-05T06:04:16.938Z,100201.78
2022-11-05T06:06:47.652Z,100197.13
2022-11-05T06:09:18.604Z,100200.91
2022-11-05T06:11:48.281Z,100195.28
2022-11-05T06:14:18.101Z,100203.91
2022-11-05T06:16:47.856Z,100196.63
2022-11-05T06:19:17.811Z,100182.09
2022-11-05T06:21:47.115Z,100193.41
2022-11-05T06:24:15.929Z,100177.09
2022-11-05T06:26:47.219Z,100199.09
2022-11-05T06:29:15.714Z,100167.78
2022-11-05T06:31:44.723Z,100149.56
2022-11-05T06:34:21.926Z,100158.22
2022-11-05T06:36:54.503Z,100157.63
2022-11-05T06:39:25.023Z,100158.47
2022-11-05T06:44:48.631Z,100149.03
2022-11-05T06:47:19.318Z,100157.22
2022-11-05T06:49:51.343Z,100142.34
2022-11-05T06:52:21.671Z,100130.94
2022-11-05T06:54:50.663Z,100124.09
2022-11-05T06:57:19.089Z,100127.56
2022-11-05T06:59:47.758Z,100121.03
2022-11-05T07:02:18.084Z,100110.34
2022-11-05T07:04:47.290Z,100100.28
2022-11-05T07:07:19.305Z,100103.34
2022-11-05T07:09:49.056Z,100113.94
2022-11-05T07:12:18.495Z,100104.88
2022-11-05T07:14:47.577Z,100108.38
2022-11-05T07:17:19.587Z,100098.19
2022-11-05T07:19:50.438Z,100084.88
2022-11-05T07:22:20.665Z,100100.44
2022-11-05T07:24:50.453Z,100097.81
2022-11-05T07:27:20.151Z,100100.44
2022-11-05T07:29:50.609Z,100098.94
2022-11-05T07:32:25.098Z,100094.63
2022-11-05T07:34:54.503Z,100105.91
2022-11-05T07:37:24.545Z,100100.88
2022-11-05T07:39:54.571Z,100102.53
2022-11-05T07:42:23.091Z,100085.53
2022-11-05T07:44:52.732Z,100089.31
2022-11-05T07:47:21.937Z,100081.94
2022-11-05T07:49:50.506Z,100072.16
2022-11-05T07:52:21.827Z,100063.81
2022-11-05T07:54:51.886Z,100086.06
2022-11-05T07:57:21.418Z,100072.56
2022-11-05T07:59:50.899Z,100083.97
2022-11-05T08:02:20.803Z,100070.06
2022-11-05T08:04:50.764Z,100085.06
2022-11-05T08:07:21.516Z,100073.13
2022-11-05T08:09:51.619Z,100085.22
2022-11-05T08:12:20.111Z,100098.75
2022-11-05T08:14:48.666Z,100098.03
2022-11-05T08:17:20.976Z,100091.34
2022-11-05T08:19:50.772Z,100079.09
2022-11-05T08:22:19.947Z,100090.81
2022-11-05T08:24:48.494Z,100077.13
2022-11-05T08:27:19.720Z,100081.28
2022-11-05T08:29:49.720Z,100080.91
2022-11-05T08:32:18.339Z,100087.19
2022-11-05T08:34:46.720Z,100100.81
2022-11-05T08:37:15.142Z,100093.28
2022-11-05T08:39:43.937Z,100092.28
2022-11-05T08:42:12.662Z,100082.84
2022-11-05T08:44:43.031Z,100085.88
2022-11-05T08:47:14.672Z,100087.28
2022-11-05T08:49:50.223Z,100092.13
2022-11-05T08:52:21.019Z,100083.31
2022-11-05T08:54:51.755Z,100107.44
2022-11-05T08:57:22.252Z,100101.59
2022-11-05T08:59:53.249Z,100104.13
2022-11-05T09:02:21.723Z,100117.38
2022-11-05T09:04:50.418Z,100106.06
2022-11-05T09:07:19.029Z,100120.13
2022-11-05T09:09:50.010Z,100117.19
2022-11-05T09:12:19.658Z,100109.81
2022-11-05T09:14:48.442Z,100128.19
2022-11-05T09:17:20.755Z,100128.34
2022-11-05T09:19:50.504Z,100135.16
2022-11-05T09:22:18.989Z,100133.25
2022-11-05T09:24:48.074Z,100137.97
2022-11-05T09:27:16.766Z,100148.16
2022-11-05T09:29:47.377Z,100148.00
2022-11-05T09:32:21.094Z,100154.97
2022-11-05T09:34:50.511Z,100159.19
2022-11-05T09:37:18.790Z,100149.84
2022-11-05T09:39:47.240Z,100155.00
2022-11-05T09:42:22.065Z,100151.94
2022-11-05T09:44:56.651Z,100150.16
2022-11-05T09:47:38.160Z,100156.59
2022-11-05T09:50:10.615Z,100173.84
2022-11-05T09:52:40.177Z,100168.69
2022-11-05T09:55:25.019Z,100170.22
2022-11-05T09:58:01.763Z,100165.50
2022-11-05T10:00:33.849Z,100171.47
2022-11-05T10:03:08.261Z,100194.22
2022-11-05T10:05:40.867Z,100187.47
2022-11-05T10:08:17.124Z,100193.03
2022-11-05T10:10:50.868Z,100181.22
2022-11-05T10:13:29.016Z,100181.38
2022-11-05T10:16:03.130Z,100178.03
2022-11-05T10:18:37.018Z,100180.13
2022-11-05T10:21:07.071Z,100179.13
2022-11-05T10:23:36.392Z,100178.84
2022-11-05T10:26:07.888Z,100180.25
2022-11-05T10:28:38.061Z,100159.47
2022-11-05T10:31:10.521Z,100135.16
2022-11-05T10:33:46.857Z,100120.94
2022-11-05T10:36:21.055Z,100122.91
2022-11-05T10:38:49.499Z,100131.31
2022-11-05T10:41:47.161Z,100119.66
2022-11-05T10:44:28.160Z,100100.25
2022-11-05T10:47:08.748Z,100091.25
2022-11-05T10:49:51.302Z,100125.94
2022-11-05T10:52:24.098Z,100135.94
2022-11-05T10:54:55.703Z,100136.72
2022-11-05T10:57:36.710Z,100136.59
2022-11-05T11:00:28.606Z,100145.94
2022-11-05T11:03:00.705Z,100134.13
2022-11-05T11:05:34.210Z,100133.81
2022-11-05T11:08:23.908Z,100139.56
2022-11-05T11:11:07.294Z,100115.00
2022-11-05T11:13:52.533Z,100118.00
2022-11-05T11:16:25.105Z,100134.09
2022-11-05T11:18:56.538Z,100145.00
2022-11-05T11:21:26.447Z,100137.50
2022-11-05T11:23:59.412Z,100152.91
2022-11-05T11:26:31.317Z,100141.50
2022-11-05T11:29:03.228Z,100138.56
2022-11-05T11:31:35.112Z,100158.81
2022-11-05T11:34:17.888Z,100149.88
2022-11-05T11:36:52.268Z,100161.03
2022-11-05T11:39:26.142Z,100161.44
2022-11-05T11:41:59.297Z,100149.16
2022-11-05T11:44:31.631Z,100140.94
2022-11-05T11:47:06.547Z,100135.66
2022-11-05T11:49:46.163Z,100126.31
2022-11-05T11:52:20.413Z,100146.22
2022-11-05T11:54:49.037Z,100150.28
2022-11-05T11:57:27.300Z,100126.28
2022-11-05T12:00:14.671Z,100125.22
2022-11-05T12:03:02.096Z,100109.16
2022-11-05T12:05:42.756Z,100131.44
2022-11-05T12:08:26.323Z,100140.47
2022-11-05T12:11:05.538Z,100115.69
2022-11-05T12:14:00.334Z,100132.44
2022-11-05T12:16:58.891Z,100110.63
2022-11-05T12:19:44.024Z,100110.22
2022-11-05T12:22:31.721Z,100112.28
2022-11-05T12:25:29.479Z,100093.25
2022-11-05T12:28:12.098Z,100106.06
2022-11-05T12:30:54.234Z,100092.78
2022-11-05T12:33:41.264Z,100101.50
2022-11-05T12:36:32.951Z,100099.91
2022-11-05T12:39:37.887Z,100096.94
2022-11-05T12:42:17.529Z,100096.09
2022-11-05T12:44:56.637Z,100089.66
2022-11-05T12:47:43.085Z,100093.63
2022-11-05T12:50:22.791Z,100097.75
2022-11-05T12:53:16.669Z,100101.44
2022-11-05T12:55:59.444Z,100093.31
2022-11-05T12:58:34.986Z,100104.38
2022-11-05T13:01:09.306Z,100095.72
2022-11-05T13:03:43.864Z,100103.56
2022-11-05T13:06:16.027Z,100090.03
2022-11-05T13:08:52.267Z,100101.63
2022-11-05T13:11:38.122Z,100095.97
2022-11-05T13:14:15.287Z,100106.31
2022-11-05T13:16:51.045Z,100104.50
2022-11-05T13:19:25.705Z,100105.28
2022-11-05T13:22:01.754Z,100103.06
2022-11-05T13:24:36.270Z,100099.53
2022-11-05T13:27:17.139Z,100102.66
2022-11-05T13:30:00.134Z,100095.59
2022-11-05T13:32:41.440Z,100107.72
2022-11-05T13:35:19.102Z,100115.09
2022-11-05T13:38:08.375Z,100095.91
2022-11-05T13:40:46.628Z,100102.31
2022-11-05T13:44:04.004Z,100096.66
2022-11-05T13:47:13.528Z,100085.63
2022-11-05T13:50:11.087Z,100098.09
2022-11-05T13:53:00.485Z,100110.63
2022-11-05T13:56:12.454Z,100095.69
2022-11-05T13:59:20.777Z,100100.97
2022-11-05T14:01:55.425Z,100092.09
2022-11-05T14:04:38.186Z,100097.75
2022-11-05T14:07:16.752Z,100093.81
2022-11-05T14:09:56.593Z,100092.56
2022-11-05T14:12:30.166Z,100087.22
2022-11-05T14:15:05.006Z,100079.06
2022-11-05T14:17:36.982Z,100081.06
2022-11-05T14:20:27.227Z,100077.28
2022-11-05T14:23:16.214Z,100064.09
2022-11-05T14:25:56.366Z,100063.69
2022-11-05T14:28:47.710Z,100072.13
2022-11-05T14:32:07.745Z,100071.47
2022-11-05T14:34:45.783Z,100078.84
2022-11-05T14:37:41.795Z,100082.59
2022-11-05T14:40:36.403Z,100081.97
2022-11-05T14:43:09.824Z,100083.53
2022-11-05T14:45:41.117Z,100081.53
2022-11-05T14:48:28.404Z,100081.38
2022-11-05T14:50:57.487Z,100074.47
2022-11-05T14:53:33.869Z,100070.78
2022-11-05T14:56:06.850Z,100078.22
2022-11-05T14:58:39.113Z,100081.94
2022-11-05T15:01:09.572Z,100084.44
2022-11-05T15:04:03.804Z,100085.75
2022-11-05T15:06:37.801Z,100089.97
2022-11-05T15:09:25.973Z,100095.53
2022-11-05T15:12:09.196Z,100064.47
2022-11-05T15:14:43.084Z,100075.25
2022-11-05T15:17:20.051Z,100074.81
2022-11-05T15:19:49.733Z,100076.16
2022-11-05T15:22:31.271Z,100068.19
2022-11-05T15:25:02.446Z,100069.09
2022-11-05T15:27:48.478Z,100065.75
2022-11-05T15:30:19.101Z,100062.69
2022-11-05T15:32:47.899Z,100065.47
2022-11-05T15:35:22.521Z,100079.38
2022-11-05T15:37:57.326Z,100084.91
2022-11-05T15:40:32.496Z,100079.22
2022-11-05T15:43:20.070Z,100091.22
2022-11-05T15:46:09.458Z,100096.13
2022-11-05T15:48:38.507Z,100090.97
2022-11-05T15:51:08.058Z,100090.50
2022-11-05T15:56:51.458Z,100090.97
2022-11-05T15:59:24.137Z,100101.69
2022-11-05T16:01:57.374Z,100098.66
2022-11-05T16:04:29.160Z,100098.09
2022-11-05T16:07:00.726Z,100106.53
2022-11-05T16:09:32.031Z,100105.91
2022-11-05T16:12:29.681Z,100104.94
2022-11-05T16:15:04.758Z,100110.28
2022-11-05T16:17:47.217Z,100106.38
2022-11-05T16:20:32.640Z,100112.25
2022-11-05T16:23:02.756Z,100119.38
2022-11-05T16:25:39.001Z,100121.88
2022-11-05T16:28:23.823Z,100124.81
2022-11-05T16:31:01.059Z,100123.56
2022-11-05T16:33:41.513Z,100127.31
2022-11-05T16:36:10.571Z,100127.31
2022-11-05T16:38:39.524Z,100131.91
2022-11-05T16:41:08.382Z,100138.19
2022-11-05T16:43:38.366Z,100143.75
2022-11-05T16:46:07.485Z,100147.88
2022-11-05T16:48:35.800Z,100146.91
2022-11-05T16:51:04.427Z,100160.41
2022-11-05T16:53:32.999Z,100161.75
2022-11-05T16:56:01.477Z,100160.25
2022-11-05T16:58:30.695Z,100159.53
2022-11-05T17:01:04.185Z,100177.59
2022-11-05T17:03:32.815Z,100177.56
2022-11-05T17:06:01.889Z,100182.59
2022-11-05T17:08:31.897Z,100179.78
2022-11-05T17:11:01.840Z,100185.28
2022-11-05T17:13:30.898Z,100185.69
2022-11-05T17:16:01.845Z,100186.38
2022-11-05T17:18:30.913Z,100187.69
2022-11-05T17:20:59.876Z,100187.97
2022-11-05T17:23:28.928Z,100184.38
2022-11-05T17:26:01.727Z,100191.84
2022-11-05T17:28:30.639Z,100188.75
2022-11-05T17:31:03.110Z,100193.31
2022-11-05T17:33:32.076Z,100189.94
2022-11-05T17:36:00.978Z,100194.50
2022-11-05T17:38:30.758Z,100194.44
2022-11-05T17:40:59.486Z,100193.97
2022-11-05T17:43:28.374Z,100190.50
2022-11-05T17:46:03.104Z,100196.03
2022-11-05T17:48:34.569Z,100191.84
2022-11-05T17:51:03.728Z,100187.13
2022-11-05T17:53:32.385Z,100187.78
2022-11-05T17:56:00.844Z,100181.31
2022-11-05T17:58:30.653Z,100182.03
2022-11-05T18:01:00.028Z,100183.63
2022-11-05T18:03:28.739Z,100181.84
2022-11-05T18:06:04.889Z,100177.53
2022-11-05T18:08:34.634Z,100188.31
2022-11-05T18:11:03.274Z,100185.94
2022-11-05T18:13:31.722Z,100184.41
2022-11-05T18:16:00.067Z,100180.19
2022-11-05T18:18:28.824Z,100182.97
2022-11-05T18:20:59.356Z,100173.38
2022-11-05T18:23:29.500Z,100165.94
2022-11-05T18:25:58.915Z,100165.25
2022-11-05T18:28:30.235Z,100161.88
2022-11-05T18:30:58.725Z,100156.38
2022-11-05T18:33:27.114Z,100145.50
2022-11-05T18:35:56.098Z,100145.59
2022-11-05T18:38:24.758Z,100154.25
2022-11-05T18:40:55.021Z,100147.41
2022-11-05T18:43:23.317Z,100139.19
2022-11-05T18:45:56.949Z,100139.03
2022-11-05T18:48:25.251Z,100141.69
2022-11-05T18:50:57.700Z,100131.97
2022-11-05T18:53:29.384Z,100131.72
2022-11-05T18:55:59.250Z,100133.06
2022-11-05T18:58:28.904Z,100129.72
2022-11-05T19:01:00.211Z,100124.44
2022-11-05T19:03:33.689Z,100129.47
2022-11-05T19:06:04.677Z,100120.72
2022-11-05T19:08:34.229Z,100117.81
2022-11-05T19:11:09.954Z,100103.78
2022-11-05T19:13:39.285Z,100106.88
2022-11-05T19:16:09.799Z,100112.28
2022-11-05T19:18:38.996Z,100098.97
2022-11-05T19:21:09.782Z,100101.34
2022-11-05T19:23:39.496Z,100090.94
2022-11-05T19:26:12.710Z,100097.19
2022-11-05T19:28:41.791Z,100090.59
2022-11-05T19:31:15.250Z,100086.09
2022-11-05T19:33:44.101Z,100085.16
2022-11-05T19:36:14.825Z,100083.59
2022-11-05T19:38:43.929Z,100083.00
2022-11-05T19:41:16.465Z,100086.34
2022-11-05T19:43:45.475Z,100090.16
2022-11-05T19:46:17.785Z,100080.19
2022-11-05T19:48:47.325Z,100070.91
2022-11-05T19:51:18.592Z,100057.50
2022-11-05T19:53:47.082Z,100049.25
2022-11-05T19:56:19.108Z,100060.38
2022-11-05T19:58:47.517Z,100057.34
2022-11-05T20:01:17.887Z,100056.28
2022-11-05T20:03:47.946Z,100056.38
2022-11-05T20:06:19.784Z,100057.94
2022-11-05T20:09:15.319Z,100059.59
2022-11-05T20:11:40.265Z,100060.72
2022-11-05T20:14:10.854Z,100057.16
2022-11-05T20:16:40.568Z,100053.31
2022-11-05T20:19:11.249Z,100042.16
2022-11-05T20:21:40.176Z,100034.03
2022-11-05T20:24:09.882Z,100028.09
2022-11-05T20:26:41.586Z,100028.56
2022-11-05T20:29:09.927Z,100021.81
2022-11-05T20:31:38.385Z,100011.19
2022-11-05T20:34:07.101Z,99996.84
2022-11-05T20:36:36.730Z,99991.44
2022-11-05T20:39:05.946Z,99985.19
2022-11-05T20:41:34.629Z,99982.66
2022-11-05T20:44:05.077Z,99983.09
2022-11-05T20:46:33.980Z,99979.75
2022-11-05T20:49:02.598Z,99982.81
2022-11-05T20:51:31.328Z,99982.69
2022-11-05T20:54:01.824Z,99977.53
2022-11-05T20:56:34.941Z,99978.66
2022-11-05T20:59:06.150Z,99986.16
2022-11-05T21:01:36.088Z,99974.19
2022-11-05T21:04:05.764Z,99966.94
2022-11-05T21:06:36.119Z,99962.66
2022-11-05T21:09:06.209Z,99967.38
2022-11-05T21:11:54.632Z,99969.59
2022-11-05T21:14:24.895Z,99967.94
2022-11-05T21:16:53.568Z,99968.19
2022-11-05T21:19:24.409Z,99960.69
2022-11-05T21:21:52.816Z,99959.84
2022-11-05T21:24:21.152Z,99956.78
2022-11-05T21:26:50.713Z,99950.81
2022-11-05T21:29:20.215Z,99942.19
2022-11-05T21:31:50.898Z,99940.81
2022-11-05T21:34:20.430Z,99934.13
2022-11-05T21:36:50.452Z,99942.75
2022-11-05T21:39:19.669Z,99944.16
2022-11-05T21:41:48.281Z,99945.97
2022-11-05T21:44:16.709Z,99930.50
2022-11-05T21:46:45.216Z,99925.91
2022-11-05T21:49:15.662Z,99923.97
2022-11-05T21:52:01.635Z,99922.28
2022-11-05T21:54:47.124Z,99910.47
2022-11-05T21:57:35.153Z,99917.84
2022-11-05T22:00:06.005Z,99916.59
2022-11-05T22:02:34.543Z,99909.66
2022-11-05T22:05:06.707Z,99896.16
2022-11-05T22:07:37.734Z,99901.59
2022-11-05T22:10:13.288Z,99905.19
2022-11-05T22:12:44.395Z,99886.69
2022-11-05T22:15:13.399Z,99879.88
2022-11-05T22:17:46.990Z,99878.50
2022-11-05T22:20:19.272Z,99879.34
2022-11-05T22:22:47.936Z,99863.19
2022-11-05T22:25:16.971Z,99854.47
2022-11-05T22:27:45.883Z,99857.50
2022-11-05T22:30:16.003Z,99860.56
2022-11-05T22:32:44.716Z,99851.63
2022-11-05T22:35:14.504Z,99848.97
2022-11-05T22:37:44.303Z,99838.28
2022-11-05T22:40:13.070Z,99838.69
2022-11-05T22:42:41.837Z,99835.75
2022-11-05T22:45:11.545Z,99827.56
2022-11-05T22:47:43.124Z,99829.59
2022-11-05T22:50:16.926Z,99831.56
2022-11-05T22:52:48.203Z,99810.97
2022-11-05T22:55:17.215Z,99813.34
2022-11-05T22:57:46.040Z,99809.72
2022-11-05T23:00:18.544Z,99815.72
2022-11-05T23:02:48.619Z,99815.00
2022-11-05T23:05:17.320Z,99801.78
2022-11-05T23:08:04.979Z,99806.25
2022-11-05T23:10:50.567Z,99794.56
2022-11-05T23:13:20.082Z,99801.34
2022-11-05T23:16:06.221Z,99792.47
2022-11-05T23:18:52.729Z,99795.94
2022-11-05T23:21:38.749Z,99791.34
2022-11-05T23:24:08.973Z,99779.69
2022-11-05T23:26:51.439Z,99781.06
2022-11-05T23:29:22.762Z,99775.06
2022-11-05T23:32:09.447Z,99777.47
2022-11-05T23:34:39.120Z,99775.69
2022-11-05T23:37:25.248Z,99771.63
2022-11-05T23:40:02.649Z,99756.91
2022-11-05T23:42:54.916Z,99755.84
2022-11-05T23:45:42.847Z,99757.09
2022-11-05T23:48:19.388Z,99741.41
2022-11-05T23:50:51.742Z,99744.63
2022-11-05T23:53:22.289Z,99740.16
2022-11-05T23:55:52.971Z,99734.06
2022-11-05T23:58:30.064Z,99725.84
